Lynchburg, Missouri
Current Conditions -  °F | °C
As of 5:58 AM on Sunday 23 Nov 2014 (Local Time) from KTBN Reporting Station
Light Rain Light Rain  
Wind Chill: 53°   Ceiling: 1300
Heat Index: 53°   Visibility: 7mi
Dew Point: 53°   Wind: 12mph
Humidity: 99%   Direction: 150°SSE
Pressure: 29.66"   Gusts: NA
Location:  37.49°N, 92.29°W
Report Text: KTBN 231158Z AUTO 15010KT 7SM -RA OVC013 12/12 A2966 RMK AO2 RAB1134 PRESFR SLP045 P0002 60002 70005 T01160115 10121 20099 58015
Loading
Personal Weather Stations






























Interactive Weather Map New forecast layout! Learn more

10-Day Weather Forecast

Advertisements
Track Severe Weather on mobile